createdAt,value
2023-03-28T00:00:02.626Z,88.09
2023-03-28T00:01:02.648Z,87.35
2023-03-28T00:02:02.592Z,87.71
2023-03-28T00:03:02.592Z,88.02
2023-03-28T00:04:02.610Z,88.40
2023-03-28T00:05:02.556Z,88.40
2023-03-28T00:06:02.904Z,88.50
2023-03-28T00:07:02.553Z,88.43
2023-03-28T00:08:02.520Z,88.43
2023-03-28T00:09:02.510Z,88.60
2023-03-28T00:10:02.501Z,88.19
2023-03-28T00:11:02.511Z,88.19
2023-03-28T00:12:02.483Z,88.64
2023-03-28T00:13:02.468Z,88.54
2023-03-28T00:14:02.455Z,88.43
2023-03-28T00:15:02.446Z,88.75
2023-03-28T00:16:02.751Z,88.54
2023-03-28T00:17:02.461Z,88.75
2023-03-28T00:18:02.445Z,88.64
2023-03-28T00:19:02.419Z,88.75
2023-03-28T00:20:02.388Z,88.96
2023-03-28T00:21:02.378Z,89.27
2023-03-28T00:22:02.375Z,89.37
2023-03-28T00:23:02.360Z,89.27
2023-03-28T00:24:02.387Z,89.17
2023-03-28T00:25:03.115Z,89.27
2023-03-28T00:26:02.321Z,88.64
2023-03-28T00:27:02.330Z,89.06
2023-03-28T00:28:02.301Z,88.96
2023-03-28T00:29:02.298Z,88.85
2023-03-28T00:30:02.277Z,88.96
2023-03-28T00:31:02.286Z,88.85
2023-03-28T00:32:02.282Z,88.96
2023-03-28T00:33:02.299Z,88.81
2023-03-28T00:34:02.241Z,88.50
2023-03-28T00:35:02.235Z,88.29
2023-03-28T00:36:02.502Z,88.33
2023-03-28T00:37:02.211Z,88.43
2023-03-28T00:38:02.199Z,88.43
2023-03-28T00:39:02.189Z,88.64
2023-03-28T00:40:02.175Z,88.64
2023-03-28T00:41:02.164Z,88.54
2023-03-28T00:42:02.146Z,88.64
2023-03-28T00:43:02.140Z,88.43
2023-03-28T00:44:02.134Z,88.43
2023-03-28T00:45:02.137Z,89.06
2023-03-28T00:46:09.031Z,89.06
2023-03-28T00:47:03.125Z,89.06
2023-03-28T00:48:02.177Z,89.48
2023-03-28T00:49:02.106Z,89.17
2023-03-28T00:50:02.056Z,89.48
2023-03-28T00:51:02.054Z,89.48
2023-03-28T00:52:02.053Z,89.58
2023-03-28T00:53:02.030Z,89.48
2023-03-28T00:54:02.009Z,89.37
2023-03-28T00:55:02.006Z,89.48
2023-03-28T00:56:02.009Z,89.37
2023-03-28T00:57:01.992Z,89.37
2023-03-28T00:58:01.979Z,89.27
2023-03-28T00:59:01.960Z,89.37
2023-03-28T01:00:01.947Z,89.17
2023-03-28T01:01:01.952Z,90.10
2023-03-28T01:02:02.067Z,90.10
2023-03-28T01:03:01.962Z,89.89
2023-03-28T01:04:01.907Z,90.20
2023-03-28T01:05:01.945Z,90.10
2023-03-28T01:06:02.132Z,89.79
2023-03-28T01:07:01.876Z,89.58
2023-03-28T01:08:01.856Z,89.89
2023-03-28T01:09:01.852Z,89.89
2023-03-28T01:10:01.889Z,90.00
2023-03-28T01:11:01.847Z,89.85
2023-03-28T01:12:01.814Z,90.10
2023-03-28T01:13:01.805Z,89.79
2023-03-28T01:14:01.790Z,89.17
2023-03-28T01:15:01.815Z,89.27
2023-03-28T01:16:02.027Z,88.75
2023-03-28T01:17:01.772Z,89.89
2023-03-28T01:18:01.789Z,89.79
2023-03-28T01:19:01.733Z,89.89
2023-03-28T01:20:01.789Z,90.10
2023-03-28T01:21:01.732Z,90.00
2023-03-28T01:22:01.715Z,90.10
2023-03-28T01:23:01.688Z,89.79
2023-03-28T01:24:11.537Z,89.79
2023-03-28T01:25:02.712Z,90.00
2023-03-28T01:26:02.010Z,89.58
2023-03-28T01:27:01.664Z,89.89
2023-03-28T01:28:01.647Z,89.79
2023-03-28T01:29:01.626Z,90.10
2023-03-28T01:30:01.635Z,89.69
2023-03-28T01:31:01.614Z,89.89
2023-03-28T01:32:08.681Z,89.89
2023-03-28T01:33:01.611Z,89.83
2023-03-28T01:34:01.564Z,89.83
2023-03-28T01:35:01.552Z,90.04
2023-03-28T01:36:01.909Z,90.41
2023-03-28T01:37:01.570Z,89.79
2023-03-28T01:38:01.524Z,89.41
2023-03-28T01:39:01.505Z,89.83
2023-03-28T01:40:01.543Z,90.14
2023-03-28T01:41:01.545Z,89.62
2023-03-28T01:42:01.484Z,89.83
2023-03-28T01:43:01.479Z,90.35
2023-03-28T01:44:01.479Z,90.56
2023-03-28T01:45:01.464Z,90.04
2023-03-28T01:46:01.769Z,90.14
2023-03-28T01:47:01.474Z,90.14
2023-03-28T01:48:01.447Z,89.94
2023-03-28T01:49:01.421Z,90.04
2023-03-28T01:50:01.423Z,89.94
2023-03-28T01:51:01.372Z,89.94
2023-03-28T01:52:01.360Z,89.73
2023-03-28T01:53:01.429Z,90.50
2023-03-28T01:54:01.364Z,90.39
2023-03-28T01:55:01.328Z,90.66
2023-03-28T01:56:01.514Z,90.70
2023-03-28T01:57:01.446Z,90.39
2023-03-28T01:58:01.297Z,90.70
2023-03-28T01:59:01.294Z,90.60
2023-03-28T02:00:01.280Z,90.56
2023-03-28T02:01:01.318Z,90.70
2023-03-28T02:02:01.301Z,91.02
2023-03-28T02:03:01.378Z,91.02
2023-03-28T02:04:01.238Z,91.12
2023-03-28T02:05:01.224Z,91.08
2023-03-28T02:06:01.571Z,91.22
2023-03-28T02:07:01.213Z,91.18
2023-03-28T02:08:01.181Z,91.02
2023-03-28T02:09:01.194Z,90.29
2023-03-28T02:10:01.172Z,90.39
2023-03-28T02:11:01.157Z,90.50
2023-03-28T02:12:01.145Z,90.70
2023-03-28T02:13:01.157Z,90.39
2023-03-28T02:14:01.123Z,90.70
2023-03-28T02:15:01.124Z,91.12
2023-03-28T02:16:01.379Z,91.22
2023-03-28T02:17:01.090Z,91.22
2023-03-28T02:18:01.221Z,90.91
2023-03-28T02:19:01.084Z,91.12
2023-03-28T02:20:01.280Z,90.60
2023-03-28T02:21:01.063Z,90.39
2023-03-28T02:22:01.031Z,90.60
2023-03-28T02:23:01.034Z,90.70
2023-03-28T02:24:01.014Z,90.70
2023-03-28T02:25:01.031Z,91.02
2023-03-28T02:26:01.255Z,91.02
2023-03-28T02:27:00.999Z,91.22
2023-03-28T02:28:00.979Z,91.43
2023-03-28T02:29:00.972Z,91.22
2023-03-28T02:30:00.942Z,90.91
2023-03-28T02:31:00.938Z,90.81
2023-03-28T02:32:01.009Z,91.33
2023-03-28T02:33:00.989Z,91.02
2023-03-28T02:34:00.913Z,91.22
2023-03-28T02:35:00.898Z,91.22
2023-03-28T02:36:01.126Z,90.70
2023-03-28T02:37:00.872Z,90.75
2023-03-28T02:38:00.870Z,91.22
2023-03-28T02:39:00.855Z,90.91
2023-03-28T02:40:00.840Z,91.12
2023-03-28T02:41:00.863Z,91.02
2023-03-28T02:42:00.849Z,90.75
2023-03-28T02:43:00.805Z,90.85
2023-03-28T02:44:00.789Z,91.06
2023-03-28T02:45:00.791Z,91.06
2023-03-28T02:46:00.985Z,91.06
2023-03-28T02:47:01.442Z,91.16
2023-03-28T02:48:00.823Z,90.85
2023-03-28T02:49:00.743Z,91.16
2023-03-28T02:50:00.751Z,91.20
2023-03-28T02:51:00.755Z,91.06
2023-03-28T02:52:00.714Z,90.95
2023-03-28T02:53:00.705Z,90.95
2023-03-28T02:54:00.683Z,90.64
2023-03-28T02:55:01.677Z,90.95
2023-03-28T02:56:00.880Z,91.00
2023-03-28T02:57:00.723Z,90.79
2023-03-28T02:58:00.642Z,91.10
2023-03-28T02:59:00.652Z,91.31
2023-03-28T03:00:00.621Z,91.52
2023-03-28T03:01:00.636Z,92.03
2023-03-28T03:02:00.596Z,92.14
2023-03-28T03:03:00.638Z,92.03
2023-03-28T03:04:00.681Z,92.03
2023-03-28T03:05:00.588Z,92.10
2023-03-28T03:06:00.656Z,92.00
2023-03-28T03:07:00.562Z,91.58
2023-03-28T03:08:00.537Z,92.14
2023-03-28T03:09:00.545Z,91.31
2023-03-28T03:10:00.528Z,91.62
2023-03-28T03:11:00.502Z,91.62
2023-03-28T03:12:00.488Z,92.14
2023-03-28T03:13:00.519Z,91.52
2023-03-28T03:14:00.495Z,92.08
2023-03-28T03:15:00.492Z,91.77
2023-03-28T03:16:00.675Z,92.29
2023-03-28T03:17:00.447Z,92.08
2023-03-28T03:18:00.515Z,91.93
2023-03-28T03:19:00.412Z,92.08
2023-03-28T03:20:00.413Z,91.97
2023-03-28T03:21:00.393Z,91.87
2023-03-28T03:22:00.393Z,92.60
2023-03-28T03:23:00.362Z,92.08
2023-03-28T03:24:00.361Z,92.40
2023-03-28T03:25:00.338Z,92.08
2023-03-28T03:26:00.825Z,92.18
2023-03-28T03:27:00.322Z,92.18
2023-03-28T03:28:00.310Z,92.50
2023-03-28T03:29:00.326Z,92.40
2023-03-28T03:30:00.308Z,92.40
2023-03-28T03:31:00.305Z,92.40
2023-03-28T03:32:00.261Z,92.29
2023-03-28T03:33:00.321Z,92.29
2023-03-28T03:34:00.684Z,92.29
2023-03-28T03:35:00.228Z,92.08
2023-03-28T03:36:01.353Z,92.81
2023-03-28T03:37:00.215Z,92.29
2023-03-28T03:38:00.277Z,92.50
2023-03-28T03:39:00.175Z,92.50
2023-03-28T03:40:00.212Z,92.18
2023-03-28T03:41:00.173Z,92.40
2023-03-28T03:42:00.208Z,92.18
2023-03-28T03:43:00.132Z,92.81
2023-03-28T03:44:00.137Z,92.40
2023-03-28T03:45:00.149Z,92.40
2023-03-28T03:46:00.289Z,92.60
2023-03-28T03:47:00.120Z,92.60
2023-03-28T03:48:00.162Z,92.60
2023-03-28T03:49:00.103Z,92.33
2023-03-28T03:50:00.109Z,92.40
2023-03-28T03:51:00.052Z,92.33
2023-03-28T03:52:00.039Z,92.18
2023-03-28T03:53:00.027Z,92.54
2023-03-28T03:54:00.027Z,92.44
2023-03-28T03:55:00.001Z,92.40
2023-03-28T03:56:00.333Z,92.54
2023-03-28T03:57:00.014Z,92.65
2023-03-28T03:57:59.988Z,92.54
2023-03-28T03:58:59.970Z,92.44
2023-03-28T03:59:59.957Z,92.75
2023-03-28T04:01:00.043Z,92.75
2023-03-28T04:02:00.023Z,92.44
2023-03-28T04:02:59.949Z,92.60
2023-03-28T04:03:59.986Z,93.59
2023-03-28T04:04:59.902Z,93.69
2023-03-28T04:06:00.093Z,93.59
2023-03-28T04:06:59.887Z,93.69
2023-03-28T04:07:59.869Z,93.79
2023-03-28T04:08:59.855Z,93.48
2023-03-28T04:09:59.867Z,93.16
2023-03-28T04:10:59.823Z,93.37
2023-03-28T04:11:59.828Z,93.27
2023-03-28T04:12:59.805Z,93.48
2023-03-28T04:13:59.800Z,93.27
2023-03-28T04:14:59.791Z,93.37
2023-03-28T04:16:00.030Z,93.48
2023-03-28T04:16:59.805Z,93.59
2023-03-28T04:18:01.269Z,93.48
2023-03-28T04:18:59.742Z,93.37
2023-03-28T04:19:59.729Z,93.37
2023-03-28T04:20:59.726Z,94.10
2023-03-28T04:21:59.715Z,93.79
2023-03-28T04:22:59.695Z,93.63
2023-03-28T04:23:59.677Z,94.00
2023-03-28T04:24:59.682Z,93.94
2023-03-28T04:25:59.866Z,93.79
2023-03-28T04:26:59.655Z,94.00
2023-03-28T04:27:59.641Z,94.00
2023-03-28T04:28:59.623Z,93.84
2023-03-28T04:29:59.619Z,93.63
2023-03-28T04:30:59.877Z,94.04
2023-03-28T04:31:59.592Z,94.31
2023-03-28T04:32:59.627Z,94.46
2023-03-28T04:33:59.581Z,94.35
2023-03-28T04:34:59.557Z,94.35
2023-03-28T04:35:59.717Z,94.25
2023-03-28T04:36:59.543Z,94.25
2023-03-28T04:37:59.528Z,94.25
2023-03-28T04:38:59.511Z,94.63
2023-03-28T04:39:59.522Z,94.21
2023-03-28T04:40:59.507Z,94.31
2023-03-28T04:41:59.534Z,94.42
2023-03-28T04:42:59.484Z,94.52
2023-03-28T04:43:59.460Z,94.31
2023-03-28T04:44:59.451Z,94.21
2023-03-28T04:45:59.802Z,94.42
2023-03-28T04:46:59.440Z,94.46
2023-03-28T04:47:59.464Z,94.21
2023-03-28T04:48:59.425Z,94.42
2023-03-28T04:49:59.405Z,94.42
2023-03-28T04:50:59.403Z,94.42
2023-03-28T04:51:59.378Z,94.52
2023-03-28T04:52:59.360Z,94.31
2023-03-28T04:53:59.354Z,94.42
2023-03-28T04:54:59.346Z,93.59
2023-03-28T04:55:59.444Z,93.59
2023-03-28T04:56:59.338Z,94.10
2023-03-28T04:57:59.313Z,93.69
2023-03-28T04:58:59.312Z,93.59
2023-03-28T04:59:59.294Z,93.84
2023-03-28T05:00:59.515Z,93.59
2023-03-28T05:01:59.384Z,94.31
2023-03-28T05:02:59.312Z,93.63
2023-03-28T05:03:59.241Z,94.04
2023-03-28T05:04:59.243Z,93.41
2023-03-28T05:05:59.216Z,93.73
2023-03-28T05:06:59.219Z,93.84
2023-03-28T05:07:59.195Z,94.35
2023-03-28T05:08:59.178Z,94.42
2023-03-28T05:09:59.174Z,94.46
2023-03-28T05:10:59.333Z,94.25
2023-03-28T05:11:59.183Z,94.35
2023-03-28T05:12:59.142Z,94.35
2023-03-28T05:13:59.124Z,94.35
2023-03-28T05:14:59.119Z,94.25
2023-03-28T05:15:59.177Z,94.46
2023-03-28T05:16:59.115Z,94.57
2023-03-28T05:17:59.103Z,94.31
2023-03-28T05:18:59.153Z,94.52
2023-03-28T05:19:59.070Z,94.63
2023-03-28T05:20:59.211Z,94.42
2023-03-28T05:21:59.053Z,94.31
2023-03-28T05:22:59.016Z,94.42
2023-03-28T05:23:59.015Z,94.42
2023-03-28T05:24:59.000Z,94.21
2023-03-28T05:25:58.988Z,94.63
2023-03-28T05:26:59.001Z,94.21
2023-03-28T05:27:58.964Z,94.42
2023-03-28T05:28:58.954Z,94.21
2023-03-28T05:29:58.951Z,94.42
2023-03-28T05:30:59.180Z,94.42
2023-03-28T05:31:58.983Z,94.21
2023-03-28T05:32:58.958Z,94.21
2023-03-28T05:33:58.907Z,94.42
2023-03-28T05:34:58.887Z,94.42
2023-03-28T05:35:58.921Z,94.42
2023-03-28T05:36:58.887Z,94.21
2023-03-28T05:37:58.864Z,94.31
2023-03-28T05:38:58.864Z,94.31
2023-03-28T05:39:58.861Z,94.63
2023-03-28T05:40:59.341Z,94.52
2023-03-28T05:41:58.814Z,94.31
2023-03-28T05:42:58.812Z,94.48
2023-03-28T05:43:58.792Z,94.52
2023-03-28T05:44:58.802Z,94.31
2023-03-28T05:45:58.841Z,94.31
2023-03-28T05:46:58.760Z,94.42
2023-03-28T05:47:58.804Z,94.31
2023-03-28T05:48:58.742Z,94.42
2023-03-28T05:49:58.730Z,94.52
2023-03-28T05:50:58.876Z,94.84
2023-03-28T05:51:58.708Z,94.84
2023-03-28T05:52:58.719Z,94.58
2023-03-28T05:53:58.699Z,94.79
2023-03-28T05:54:58.666Z,94.79
2023-03-28T05:55:58.660Z,94.06
2023-03-28T05:56:58.705Z,94.48
2023-03-28T05:57:58.636Z,94.17
2023-03-28T05:58:58.644Z,94.48
2023-03-28T05:59:58.657Z,94.48
2023-03-28T06:00:58.733Z,94.43
2023-03-28T06:01:58.595Z,94.43
2023-03-28T06:02:58.642Z,94.33
2023-03-28T06:03:58.602Z,94.12
2023-03-28T06:04:58.579Z,94.12
2023-03-28T06:05:58.567Z,94.54
2023-03-28T06:06:58.532Z,94.39
2023-03-28T06:07:58.549Z,94.33
2023-03-28T06:08:58.529Z,94.18
2023-03-28T06:09:58.504Z,94.08
2023-03-28T06:10:58.643Z,93.41
2023-03-28T06:11:58.514Z,93.83
2023-03-28T06:12:58.474Z,93.37
2023-03-28T06:13:58.469Z,92.70
2023-03-28T06:14:58.454Z,93.33
2023-03-28T06:15:58.440Z,92.45
2023-03-28T06:16:58.479Z,92.03
2023-03-28T06:17:58.458Z,91.93
2023-03-28T06:19:10.594Z,91.78
2023-03-28T06:19:59.400Z,90.75
2023-03-28T06:20:58.609Z,90.08
2023-03-28T06:21:58.402Z,90.20
2023-03-28T06:22:58.376Z,89.13
2023-03-28T06:23:58.346Z,88.15
2023-03-28T06:24:58.354Z,86.54
2023-03-28T06:25:58.335Z,85.77
2023-03-28T06:26:58.321Z,85.46
2023-03-28T06:27:58.330Z,85.56
2023-03-28T06:28:58.286Z,85.71
2023-03-28T06:29:58.282Z,85.60
2023-03-28T06:30:58.539Z,85.95
2023-03-28T06:31:58.330Z,86.51
2023-03-28T06:32:58.271Z,87.38
2023-03-28T06:33:58.241Z,87.79
2023-03-28T06:34:58.227Z,88.35
2023-03-28T06:35:58.245Z,88.04
2023-03-28T06:36:58.201Z,88.87
2023-03-28T06:37:58.186Z,89.29
2023-03-28T06:38:58.185Z,89.50
2023-03-28T06:39:58.170Z,90.23
2023-03-28T06:40:58.417Z,89.85
2023-03-28T06:41:58.167Z,89.95
2023-03-28T06:42:58.138Z,90.33
2023-03-28T06:43:58.132Z,90.44
2023-03-28T06:44:58.126Z,90.33
2023-03-28T06:45:58.147Z,90.54
2023-03-28T06:46:58.102Z,90.12
2023-03-28T06:47:58.136Z,89.81
2023-03-28T06:48:58.075Z,89.92
2023-03-28T06:49:58.063Z,90.23
2023-03-28T06:50:58.259Z,89.81
2023-03-28T06:51:58.041Z,90.29
2023-03-28T06:52:58.026Z,89.81
2023-03-28T06:53:58.019Z,89.70
2023-03-28T06:54:58.004Z,89.81
2023-03-28T06:55:58.021Z,89.92
2023-03-28T06:56:58.039Z,89.77
2023-03-28T06:57:57.978Z,89.67
2023-03-28T06:58:57.957Z,89.77
2023-03-28T06:59:57.943Z,89.21
2023-03-28T07:00:58.179Z,89.31
2023-03-28T07:01:58.003Z,88.48
2023-03-28T07:02:57.974Z,88.07
2023-03-28T07:03:58.105Z,88.54
2023-03-28T07:04:57.897Z,87.47
2023-03-28T07:05:57.884Z,87.51
2023-03-28T07:06:57.875Z,86.99
2023-03-28T07:07:57.857Z,87.30
2023-03-28T07:08:57.846Z,87.47
2023-03-28T07:09:57.847Z,86.64
2023-03-28T07:10:57.930Z,86.22
2023-03-28T07:11:57.820Z,85.87
2023-03-28T07:12:57.847Z,85.83
2023-03-28T07:13:57.793Z,84.75
2023-03-28T07:14:57.786Z,83.58
2023-03-28T07:15:57.778Z,82.86
2023-03-28T07:16:57.808Z,82.65
2023-03-28T07:17:57.784Z,82.27
2023-03-28T07:18:57.759Z,82.68
2023-03-28T07:19:57.723Z,83.14
2023-03-28T07:21:03.945Z,83.72
2023-03-28T07:21:58.697Z,83.61
2023-03-28T07:22:57.699Z,81.70
2023-03-28T07:23:57.677Z,80.57
2023-03-28T07:24:57.664Z,80.46
2023-03-28T07:25:57.654Z,80.11
2023-03-28T07:27:14.091Z,80.01
2023-03-28T07:27:58.632Z,79.60
2023-03-28T07:28:57.657Z,80.22
2023-03-28T07:29:57.630Z,80.01
2023-03-28T07:30:57.679Z,79.80
2023-03-28T07:31:57.689Z,79.91
2023-03-28T07:33:17.378Z,80.36
2023-03-28T07:33:58.624Z,80.67
2023-03-28T07:34:57.556Z,80.88
2023-03-28T07:35:57.612Z,80.84
2023-03-28T07:36:57.557Z,80.11
2023-03-28T07:37:57.538Z,80.29
2023-03-28T07:38:57.512Z,79.01
2023-03-28T07:39:57.503Z,78.70
2023-03-28T07:40:57.507Z,78.80
2023-03-28T07:41:57.472Z,78.70
2023-03-28T07:42:57.501Z,78.59
2023-03-28T07:43:57.469Z,78.45
2023-03-28T07:44:57.465Z,77.91
2023-03-28T07:45:57.440Z,77.84
2023-03-28T07:46:57.418Z,77.63
2023-03-28T07:47:57.477Z,77.42
2023-03-28T07:48:57.408Z,77.49
2023-03-28T07:49:57.392Z,77.70
2023-03-28T07:50:57.651Z,76.87
2023-03-28T07:51:57.362Z,76.77
2023-03-28T07:52:57.398Z,76.67
2023-03-28T07:53:57.340Z,76.56
2023-03-28T07:54:57.332Z,77.01
2023-03-28T07:55:57.319Z,77.22
2023-03-28T07:56:57.323Z,77.49
2023-03-28T07:57:57.300Z,78.01
2023-03-28T07:58:57.292Z,77.56
2023-03-28T07:59:57.264Z,77.70
2023-03-28T08:00:57.351Z,76.87
2023-03-28T08:01:57.245Z,78.08
2023-03-28T08:02:57.284Z,76.98
2023-03-28T08:03:57.325Z,77.08
2023-03-28T08:04:57.216Z,77.39
2023-03-28T08:05:57.275Z,77.45
2023-03-28T08:06:57.189Z,76.94
2023-03-28T08:07:57.183Z,76.84
2023-03-28T08:08:57.165Z,77.66
2023-03-28T08:09:59.059Z,77.35
2023-03-28T08:10:57.301Z,77.31
2023-03-28T08:11:57.136Z,76.90
2023-03-28T08:12:57.150Z,76.18
2023-03-28T08:13:57.107Z,75.05
2023-03-28T08:14:57.125Z,75.36
2023-03-28T08:15:57.136Z,75.77
2023-03-28T08:16:57.100Z,75.43
2023-03-28T08:17:57.125Z,75.73
2023-03-28T08:19:10.021Z,74.91
2023-03-28T08:19:58.084Z,74.60
2023-03-28T08:20:57.038Z,74.91
2023-03-28T08:21:57.023Z,75.12
2023-03-28T08:22:57.027Z,74.08
2023-03-28T08:23:57.008Z,74.80
2023-03-28T08:24:56.989Z,74.02
2023-03-28T08:25:56.999Z,75.05
2023-03-28T08:26:56.973Z,75.22
2023-03-28T08:27:56.954Z,74.60
2023-03-28T08:28:56.948Z,74.33
2023-03-28T08:29:56.932Z,73.60
2023-03-28T08:30:56.973Z,73.98
2023-03-28T08:31:56.913Z,74.91
2023-03-28T08:32:56.975Z,73.57
2023-03-28T08:33:56.904Z,73.57
2023-03-28T08:34:56.880Z,74.95
2023-03-28T08:35:56.981Z,74.22
2023-03-28T08:36:56.855Z,73.81
2023-03-28T08:37:56.843Z,74.33
2023-03-28T08:38:56.838Z,74.46
2023-03-28T08:39:56.816Z,74.67
2023-03-28T08:40:56.887Z,75.09
2023-03-28T08:41:56.818Z,74.74
2023-03-28T08:42:56.789Z,74.63
2023-03-28T08:43:56.769Z,75.15
2023-03-28T08:44:56.780Z,73.60
2023-03-28T08:45:56.765Z,74.33
2023-03-28T08:46:56.798Z,73.98
2023-03-28T08:47:56.782Z,73.98
2023-03-28T08:48:56.753Z,72.23
2023-03-28T08:49:56.728Z,73.05
2023-03-28T08:50:56.698Z,73.54
2023-03-28T08:51:56.698Z,73.23
2023-03-28T08:52:56.678Z,72.99
2023-03-28T08:53:56.665Z,72.68
2023-03-28T08:54:56.650Z,72.24
2023-03-28T08:55:56.902Z,72.03
2023-03-28T08:56:56.686Z,71.48
2023-03-28T08:57:56.618Z,71.14
2023-03-28T08:58:56.654Z,70.62
2023-03-28T08:59:56.608Z,69.80
2023-03-28T09:00:56.605Z,69.90
2023-03-28T09:01:56.602Z,69.70
2023-03-28T09:02:56.736Z,69.29
2023-03-28T09:03:56.618Z,68.05
2023-03-28T09:05:05.029Z,67.65
2023-03-28T09:05:57.555Z,67.09
2023-03-28T09:06:56.523Z,67.84
2023-03-28T09:07:56.513Z,69.52
2023-03-28T09:08:56.541Z,70.55
2023-03-28T09:09:56.518Z,69.42
2023-03-28T09:10:56.484Z,69.01
2023-03-28T09:11:56.458Z,69.28
2023-03-28T09:12:56.467Z,69.49
2023-03-28T09:13:56.429Z,70.10
2023-03-28T09:14:56.432Z,69.90
2023-03-28T09:15:56.451Z,69.90
2023-03-28T09:16:56.438Z,68.59
2023-03-28T09:17:56.452Z,69.21
2023-03-28T09:18:56.396Z,69.83
2023-03-28T09:19:56.366Z,69.01
2023-03-28T09:20:56.392Z,68.77
2023-03-28T09:22:08.877Z,66.43
2023-03-28T09:22:57.349Z,67.25
2023-03-28T09:23:56.360Z,65.95
2023-03-28T09:24:56.313Z,66.05
2023-03-28T09:25:56.312Z,65.77
2023-03-28T09:26:56.299Z,67.52
2023-03-28T09:27:56.277Z,68.14
2023-03-28T09:28:56.282Z,68.24
2023-03-28T09:29:56.270Z,68.48
2023-03-28T09:30:56.241Z,68.48
2023-03-28T09:31:56.351Z,67.55
2023-03-28T09:32:56.259Z,68.27
2023-03-28T09:33:56.207Z,68.27
2023-03-28T09:34:56.200Z,68.38
2023-03-28T09:35:56.272Z,68.38
2023-03-28T09:36:56.264Z,68.90
2023-03-28T09:37:56.170Z,68.21
2023-03-28T09:38:56.206Z,68.72
2023-03-28T09:39:56.156Z,67.58
2023-03-28T09:40:56.133Z,68.48
2023-03-28T09:41:56.127Z,68.38
2023-03-28T09:42:56.105Z,68.24
2023-03-28T09:43:57.994Z,69.20
2023-03-28T09:44:56.125Z,69.17
2023-03-28T09:45:56.111Z,69.76
2023-03-28T09:46:56.065Z,67.87
2023-03-28T09:47:56.161Z,67.53
2023-03-28T09:48:56.146Z,67.60
2023-03-28T09:50:05.531Z,66.64
2023-03-28T09:50:57.090Z,66.00
2023-03-28T09:51:56.013Z,65.80
2023-03-28T09:52:56.034Z,65.17
2023-03-28T09:53:56.004Z,64.18
2023-03-28T09:54:55.974Z,65.23
2023-03-28T09:56:04.477Z,65.61
2023-03-28T09:56:56.988Z,66.05
2023-03-28T09:57:55.949Z,66.36
2023-03-28T09:58:55.935Z,66.36
2023-03-28T09:59:55.915Z,65.98
2023-03-28T10:00:55.948Z,66.49
2023-03-28T10:01:55.956Z,67.83
2023-03-28T10:02:55.950Z,67.93
2023-03-28T10:03:55.864Z,67.80
2023-03-28T10:04:55.917Z,67.57
2023-03-28T10:05:55.858Z,67.53
2023-03-28T10:06:55.849Z,65.75
2023-03-28T10:07:55.833Z,63.56
2023-03-28T10:08:55.834Z,61.40
2023-03-28T10:09:55.851Z,60.58
2023-03-28T10:10:55.834Z,61.17
2023-03-28T10:11:55.779Z,61.86
2023-03-28T10:12:55.769Z,61.76
2023-03-28T10:13:55.758Z,60.83
2023-03-28T10:14:55.764Z,59.91
2023-03-28T10:15:55.775Z,60.52
2023-03-28T10:16:55.855Z,62.06
2023-03-28T10:17:55.738Z,59.91
2023-03-28T10:18:55.700Z,60.42
2023-03-28T10:19:55.686Z,60.01
2023-03-28T10:20:55.678Z,57.95
2023-03-28T10:21:55.727Z,58.16
2023-03-28T10:22:55.680Z,60.01
2023-03-28T10:23:55.654Z,59.80
2023-03-28T10:24:55.654Z,59.77
2023-03-28T10:25:55.618Z,58.75
2023-03-28T10:26:55.617Z,59.77
2023-03-28T10:27:55.599Z,58.57
2023-03-28T10:28:55.613Z,59.73
2023-03-28T10:29:55.580Z,59.73
2023-03-28T10:30:55.607Z,59.22
2023-03-28T10:31:55.558Z,60.14
2023-03-28T10:32:55.590Z,59.11
2023-03-28T10:33:55.528Z,59.22
2023-03-28T10:34:55.543Z,58.39
2023-03-28T10:35:55.554Z,57.98
2023-03-28T10:36:55.516Z,58.18
2023-03-28T10:37:55.516Z,58.47
2023-03-28T10:38:55.491Z,58.39
2023-03-28T10:39:55.470Z,58.80
2023-03-28T10:40:55.517Z,58.73
2023-03-28T10:41:55.446Z,60.96
2023-03-28T10:42:55.432Z,59.96
2023-03-28T10:43:55.431Z,60.68
2023-03-28T10:44:55.455Z,60.89
2023-03-28T10:45:55.461Z,59.86
2023-03-28T10:46:55.438Z,61.79
2023-03-28T10:47:55.425Z,61.07
2023-03-28T10:48:55.367Z,59.80
2023-03-28T10:49:55.410Z,60.70
2023-03-28T10:50:55.349Z,60.91
2023-03-28T10:51:55.331Z,57.85
2023-03-28T10:52:55.319Z,59.29
2023-03-28T10:53:55.311Z,60.08
2023-03-28T10:54:55.289Z,60.29
2023-03-28T10:55:55.688Z,60.29
2023-03-28T10:56:55.364Z,60.73
2023-03-28T10:57:55.278Z,60.52
2023-03-28T10:58:55.249Z,59.52
2023-03-28T10:59:55.245Z,59.86
2023-03-28T11:00:55.262Z,60.06
2023-03-28T11:01:55.255Z,60.78
2023-03-28T11:02:55.361Z,60.14
2023-03-28T11:03:55.403Z,59.83
2023-03-28T11:04:55.197Z,58.31
2023-03-28T11:06:05.831Z,55.02
2023-03-28T11:06:56.181Z,55.15
2023-03-28T11:07:55.141Z,57.24
2023-03-28T11:08:55.147Z,57.75
2023-03-28T11:09:55.140Z,58.50
2023-03-28T11:10:55.130Z,59.19
2023-03-28T11:11:55.108Z,60.43
2023-03-28T11:12:56.731Z,60.12
2023-03-28T11:13:55.094Z,59.70
2023-03-28T11:14:55.111Z,59.78
2023-03-28T11:15:55.128Z,59.19
2023-03-28T11:16:55.042Z,60.40
2023-03-28T11:17:55.109Z,59.37
2023-03-28T11:18:55.032Z,59.06
2023-03-28T11:19:55.025Z,59.78
2023-03-28T11:20:54.999Z,59.58
2023-03-28T11:21:55.000Z,59.99
2023-03-28T11:23:05.166Z,60.71
2023-03-28T11:23:56.212Z,60.91
2023-03-28T11:24:54.972Z,59.68
2023-03-28T11:25:54.957Z,60.30
2023-03-28T11:27:05.038Z,61.22
2023-03-28T11:27:55.916Z,61.30
2023-03-28T11:28:54.960Z,60.89
2023-03-28T11:29:54.905Z,61.09
2023-03-28T11:30:54.886Z,60.47
2023-03-28T11:31:54.905Z,59.03
2023-03-28T11:32:55.026Z,59.96
2023-03-28T11:33:54.877Z,59.06
2023-03-28T11:34:54.876Z,59.86
2023-03-28T11:35:54.872Z,60.06
2023-03-28T11:36:54.825Z,61.30
2023-03-28T11:37:54.804Z,60.68
2023-03-28T11:38:54.798Z,59.86
2023-03-28T11:39:54.825Z,59.45
2023-03-28T11:40:54.780Z,59.86
2023-03-28T11:41:54.768Z,61.09
2023-03-28T11:42:54.773Z,60.68
2023-03-28T11:43:54.744Z,59.99
2023-03-28T11:44:54.908Z,60.33
2023-03-28T11:45:54.777Z,61.66
2023-03-28T11:46:54.841Z,60.87
2023-03-28T11:47:54.798Z,61.38
2023-03-28T11:48:54.685Z,61.05
2023-03-28T11:49:54.678Z,60.53
2023-03-28T11:50:54.679Z,61.33
2023-03-28T11:51:54.665Z,63.28
2023-03-28T11:52:54.633Z,61.30
2023-03-28T11:53:54.661Z,61.40
2023-03-28T11:54:54.617Z,62.02
2023-03-28T11:55:54.602Z,60.99
2023-03-28T11:56:54.615Z,60.78
2023-03-28T11:57:54.582Z,60.86
2023-03-28T11:58:54.602Z,60.96
2023-03-28T11:59:54.553Z,60.03
2023-03-28T12:00:54.595Z,60.55
2023-03-28T12:01:54.597Z,60.45
2023-03-28T12:02:54.756Z,59.75
2023-03-28T12:03:54.643Z,59.34
2023-03-28T12:04:54.503Z,59.86
2023-03-28T12:06:00.004Z,60.06
2023-03-28T12:07:02.476Z,60.17
2023-03-28T12:07:55.489Z,59.24
2023-03-28T12:08:54.456Z,58.21
2023-03-28T12:09:54.448Z,59.31
2023-03-28T12:10:54.437Z,59.52
2023-03-28T12:11:54.421Z,60.14
2023-03-28T12:12:54.428Z,59.22
2023-03-28T12:14:08.817Z,60.35
2023-03-28T12:14:55.394Z,60.01
2023-03-28T12:15:54.381Z,60.35
2023-03-28T12:16:54.422Z,60.14
2023-03-28T12:17:54.398Z,59.83
2023-03-28T12:18:54.357Z,60.21
2023-03-28T12:19:54.352Z,59.70
2023-03-28T12:20:54.349Z,59.52
2023-03-28T12:21:54.307Z,59.80
2023-03-28T12:22:54.347Z,59.80
2023-03-28T12:23:54.304Z,58.64
2023-03-28T12:24:54.283Z,60.05
2023-03-28T12:25:54.263Z,60.33
2023-03-28T12:26:56.025Z,58.28
2023-03-28T12:27:54.261Z,57.56
2023-03-28T12:28:54.252Z,56.64
2023-03-28T12:29:54.236Z,57.87
2023-03-28T12:30:54.253Z,57.95
2023-03-28T12:31:54.236Z,56.41
2023-03-28T12:32:54.248Z,56.20
2023-03-28T12:33:54.184Z,56.30
2023-03-28T12:34:54.194Z,55.28
2023-03-28T12:35:54.201Z,55.69
2023-03-28T12:36:54.150Z,55.77
2023-03-28T12:37:54.127Z,56.05
2023-03-28T12:38:55.650Z,53.92
2023-03-28T12:39:54.985Z,53.59
2023-03-28T12:40:54.099Z,54.15
2023-03-28T12:41:54.089Z,54.87
2023-03-28T12:42:54.080Z,54.69
2023-03-28T12:43:54.090Z,55.77
2023-03-28T12:44:54.057Z,54.66
2023-03-28T12:45:54.149Z,54.49
2023-03-28T12:46:54.037Z,55.10
2023-03-28T12:47:54.097Z,55.72
2023-03-28T12:48:54.036Z,56.85
2023-03-28T12:49:54.021Z,56.02
2023-03-28T12:50:54.012Z,55.82
2023-03-28T12:51:53.971Z,55.92